Time;durP1;ratioP1;P1;durP2;ratioP2;P2;SDS_P1;SDS_P2;PMS_P1;PMS_P2;Temp;Humidity;BMP_temperature;BMP_pressure;BME280_temperature;BME280_humidity;BME280_pressure;Samples;Min_cycle;Max_cycle;Signal;HPM_P1;HPM_P2
2024/01/28 00:01:38;;;;;;;54.00;14.43;;;4.50;99.90;;;;;;5054173;28;20044;-75
2024/01/28 00:04:04;;;;;;;52.67;14.15;;;4.50;99.90;;;;;;5054962;28;20036;-75
2024/01/28 00:06:29;;;;;;;37.40;13.10;;;4.50;99.90;;;;;;5054640;28;20039;-75
2024/01/28 00:08:55;;;;;;;58.63;14.55;;;4.50;99.90;;;;;;5053857;28;20021;-72
2024/01/28 00:11:20;;;;;;;47.80;14.57;;;4.50;99.90;;;;;;5053807;28;20044;-72
2024/01/28 00:13:46;;;;;;;46.88;14.13;;;4.50;99.90;;;;;;5053542;28;20036;-72
2024/01/28 00:16:16;;;;;;;50.15;14.23;;;4.50;99.90;;;;;;5053617;28;20040;-75
2024/01/28 00:18:42;;;;;;;44.85;14.07;;;4.40;99.90;;;;;;5053366;28;20021;-76
2024/01/28 00:21:08;;;;;;;51.03;14.02;;;4.40;99.90;;;;;;5053466;28;20386;-74
2024/01/28 00:23:34;;;;;;;68.97;14.20;;;4.40;99.90;;;;;;5053582;28;20025;-72
2024/01/28 00:26:01;;;;;;;48.05;13.73;;;4.40;99.90;;;;;;5053973;28;20024;-73
2024/01/28 00:28:28;;;;;;;50.83;12.65;;;4.30;99.90;;;;;;5058832;28;20083;-72
2024/01/28 00:30:53;;;;;;;48.65;14.15;;;4.30;99.90;;;;;;5059514;28;20029;-73
2024/01/28 00:33:19;;;;;;;52.25;14.20;;;4.30;99.90;;;;;;5053288;28;20499;-72
2024/01/28 00:35:45;;;;;;;58.65;13.85;;;4.40;99.90;;;;;;5053560;28;20025;-72
2024/01/28 00:38:11;;;;;;;52.70;13.90;;;4.30;99.90;;;;;;5052930;28;20036;-73
2024/01/28 00:40:36;;;;;;;51.17;14.48;;;4.40;99.90;;;;;;5053095;28;20033;-73
2024/01/28 00:43:03;;;;;;;39.92;13.38;;;4.30;99.90;;;;;;5052960;28;20086;-72
2024/01/28 00:45:29;;;;;;;55.33;14.13;;;4.30;99.90;;;;;;5052524;28;20020;-73
2024/01/28 00:47:55;;;;;;;46.67;13.68;;;4.30;99.90;;;;;;5052564;28;20017;-72
2024/01/28 00:50:21;;;;;;;45.17;13.95;;;4.30;99.90;;;;;;5053109;28;20416;-73
2024/01/28 00:52:46;;;;;;;52.17;13.75;;;4.30;99.90;;;;;;5052512;28;20068;-76
2024/01/28 00:55:12;;;;;;;45.47;13.63;;;4.30;99.90;;;;;;5054882;28;20025;-77
2024/01/28 00:57:38;;;;;;;45.72;12.77;;;4.30;99.90;;;;;;5055043;28;20025;-76
2024/01/28 01:00:04;;;;;;;44.78;12.27;;;4.30;99.90;;;;;;5056715;28;20025;-75
2024/01/28 01:02:30;;;;;;;53.97;12.85;;;4.30;99.90;;;;;;5049896;28;20041;-75
2024/01/28 01:04:56;;;;;;;47.58;12.50;;;4.30;99.90;;;;;;5056700;28;20453;-73
2024/01/28 01:07:21;;;;;;;54.78;13.20;;;4.20;99.90;;;;;;5055584;28;20070;-74
2024/01/28 01:09:47;;;;;;;47.40;12.90;;;4.30;99.90;;;;;;5057024;28;20021;-73
2024/01/28 01:12:13;;;;;;;40.50;12.25;;;4.20;99.90;;;;;;5056204;28;20060;-73
2024/01/28 01:14:38;;;;;;;46.78;12.20;;;4.20;99.90;;;;;;5056164;28;20021;-74
2024/01/28 01:17:05;;;;;;;40.40;12.18;;;4.20;99.90;;;;;;5056189;28;20029;-73
2024/01/28 01:19:31;;;;;;;42.85;12.07;;;4.20;99.90;;;;;;5055043;28;20484;-73
2024/01/28 01:21:57;;;;;;;42.10;10.93;;;4.30;99.90;;;;;;5057095;28;20040;-74
2024/01/28 01:24:23;;;;;;;51.67;13.35;;;4.10;99.90;;;;;;5056560;28;20025;-73
2024/01/28 01:26:50;;;;;;;46.45;12.95;;;4.20;99.90;;;;;;5053919;28;20035;-73
2024/01/28 01:29:16;;;;;;;44.00;12.90;;;4.30;99.90;;;;;;5054930;28;20036;-74
2024/01/28 01:31:42;;;;;;;47.53;12.32;;;4.20;99.90;;;;;;5053153;28;20021;-73
2024/01/28 01:34:07;;;;;;;51.38;12.65;;;4.20;99.90;;;;;;5053152;28;20442;-74
2024/01/28 01:36:33;;;;;;;52.58;14.90;;;4.10;99.90;;;;;;5052418;28;20029;-75
2024/01/28 01:38:58;;;;;;;37.42;12.35;;;4.10;99.90;;;;;;5052284;28;20037;-73
2024/01/28 01:41:25;;;;;;;48.35;12.95;;;4.20;99.90;;;;;;5051185;28;20071;-74
2024/01/28 01:43:52;;;;;;;57.47;12.63;;;4.10;99.90;;;;;;5052183;28;20506;-74
2024/01/28 01:46:17;;;;;;;45.15;12.10;;;4.10;99.90;;;;;;5052638;28;20470;-72
2024/01/28 01:48:43;;;;;;;38.58;12.32;;;4.00;99.90;;;;;;5051358;28;20048;-72
2024/01/28 01:51:11;;;;;;;50.60;12.95;;;4.00;99.90;;;;;;5051850;28;20488;-73
2024/01/28 01:53:38;;;;;;;48.88;13.82;;;4.00;99.90;;;;;;5051883;28;20483;-72
2024/01/28 01:56:05;;;;;;;51.33;13.05;;;4.10;99.90;;;;;;5051098;28;20079;-73
2024/01/28 01:58:31;;;;;;;44.33;13.02;;;4.10;99.90;;;;;;5051571;28;20033;-72
2024/01/28 02:00:58;;;;;;;44.88;13.15;;;4.00;99.90;;;;;;5051878;28;20110;-74
2024/01/28 02:03:26;;;;;;;46.03;13.35;;;4.10;99.90;;;;;;5051716;28;20044;-74
2024/01/28 02:05:52;;;;;;;50.05;14.10;;;4.10;99.90;;;;;;5051118;28;20358;-75
2024/01/28 02:08:17;;;;;;;48.17;13.15;;;4.00;99.90;;;;;;5051235;28;20040;-75
2024/01/28 02:10:44;;;;;;;46.60;13.60;;;4.00;99.90;;;;;;5052298;28;20272;-73
2024/01/28 02:13:10;;;;;;;48.85;12.48;;;3.90;99.90;;;;;;5052812;28;20369;-74
2024/01/28 02:15:39;;;;;;;49.80;13.07;;;4.00;99.90;;;;;;5052871;28;20036;-76
2024/01/28 02:18:05;;;;;;;47.22;13.18;;;4.00;99.90;;;;;;5053083;28;20074;-75
2024/01/28 02:20:31;;;;;;;44.63;12.20;;;4.10;99.90;;;;;;5054177;28;20207;-74
2024/01/28 02:22:57;;;;;;;47.47;12.95;;;4.10;99.90;;;;;;5053241;28;20109;-75
2024/01/28 02:25:23;;;;;;;45.03;13.20;;;4.20;99.90;;;;;;5069850;28;20088;-73
2024/01/28 02:27:49;;;;;;;45.25;13.02;;;4.20;99.90;;;;;;5076624;28;20017;-72
2024/01/28 02:30:15;;;;;;;50.65;13.38;;;4.20;99.90;;;;;;5076903;28;20037;-71
2024/01/28 02:32:48;;;;;;;52.63;12.95;;;4.20;99.90;;;;;;5076444;28;20039;-74
2024/01/28 02:35:15;;;;;;;52.22;12.30;;;4.10;99.90;;;;;;5076976;28;20032;-73
2024/01/28 02:37:40;;;;;;;39.13;12.20;;;4.20;99.90;;;;;;5076421;28;20029;-73
2024/01/28 02:40:07;;;;;;;52.03;12.48;;;4.20;99.90;;;;;;5076532;28;20048;-74
2024/01/28 02:42:32;;;;;;;54.25;13.48;;;4.20;99.90;;;;;;5067745;28;20036;-74
2024/01/28 02:44:58;;;;;;;54.55;13.27;;;4.30;99.90;;;;;;5062380;28;20033;-72
2024/01/28 02:47:23;;;;;;;48.67;11.63;;;4.30;99.90;;;;;;5072989;28;20017;-75
2024/01/28 02:49:49;;;;;;;55.10;12.40;;;4.20;99.90;;;;;;5058704;28;20021;-75
2024/01/28 02:52:15;;;;;;;64.45;13.48;;;4.20;99.90;;;;;;5051085;28;20025;-75
2024/01/28 02:54:40;;;;;;;41.75;12.63;;;4.20;99.90;;;;;;5051695;28;20532;-76
2024/01/28 02:57:06;;;;;;;47.15;12.95;;;4.20;99.90;;;;;;5051085;28;20025;-74
2024/01/28 02:59:31;;;;;;;34.60;10.77;;;4.20;99.90;;;;;;5051275;28;20159;-75
2024/01/28 03:01:57;;;;;;;48.50;12.43;;;4.20;99.90;;;;;;5052212;28;20013;-75
2024/01/28 03:04:23;;;;;;;38.33;10.95;;;4.10;99.90;;;;;;5052404;28;20366;-74
2024/01/28 03:06:48;;;;;;;33.88;11.50;;;4.20;99.90;;;;;;5050894;28;20085;-76
2024/01/28 03:09:14;;;;;;;45.53;11.20;;;4.10;99.90;;;;;;5055204;28;20422;-72
2024/01/28 03:11:39;;;;;;;41.80;11.52;;;4.20;99.90;;;;;;5055436;28;20028;-73
2024/01/28 03:14:06;;;;;;;49.70;12.82;;;4.20;99.90;;;;;;5054832;28;20028;-75
2024/01/28 03:16:32;;;;;;;34.78;11.88;;;4.20;99.90;;;;;;5055031;28;20032;-73
2024/01/28 03:18:58;;;;;;;41.38;11.30;;;4.10;99.90;;;;;;5054843;28;20028;-73
2024/01/28 03:21:24;;;;;;;46.85;12.20;;;4.10;99.90;;;;;;5053600;28;20439;-74
2024/01/28 03:23:49;;;;;;;42.83;12.20;;;4.10;99.90;;;;;;5054567;28;20029;-74
2024/01/28 03:26:15;;;;;;;39.67;11.98;;;4.10;99.90;;;;;;5054148;28;20532;-73
2024/01/28 03:28:42;;;;;;;47.72;12.65;;;4.10;99.90;;;;;;5053258;28;20028;-73
2024/01/28 03:31:08;;;;;;;51.72;13.32;;;4.10;99.90;;;;;;5054752;28;20024;-74
2024/01/28 03:33:34;;;;;;;41.38;11.77;;;4.20;99.90;;;;;;5055378;28;20017;-75
2024/01/28 03:35:59;;;;;;;38.63;11.07;;;4.10;99.90;;;;;;5055264;28;20021;-75
2024/01/28 03:38:25;;;;;;;50.13;13.00;;;4.00;99.90;;;;;;5052574;28;20023;-74
2024/01/28 03:40:51;;;;;;;38.70;12.57;;;4.00;99.90;;;;;;5054903;28;20487;-75
2024/01/28 03:43:16;;;;;;;41.33;13.40;;;3.90;99.90;;;;;;5054493;28;20040;-74
2024/01/28 03:45:42;;;;;;;39.50;11.80;;;3.90;99.90;;;;;;5054666;28;20108;-72
2024/01/28 03:48:07;;;;;;;39.15;10.93;;;3.90;99.90;;;;;;5053853;28;20033;-74
2024/01/28 03:50:33;;;;;;;40.58;10.48;;;3.80;99.90;;;;;;5054581;28;20061;-72
2024/01/28 03:52:59;;;;;;;48.33;12.20;;;3.70;99.90;;;;;;5054881;28;20059;-72
2024/01/28 03:55:24;;;;;;;36.30;11.95;;;3.60;99.90;;;;;;5052783;28;20029;-72
2024/01/28 03:57:50;;;;;;;48.17;11.93;;;3.60;99.90;;;;;;5053879;28;20048;-74
2024/01/28 04:00:18;;;;;;;39.03;11.63;;;3.50;99.90;;;;;;5054830;28;20021;-74
2024/01/28 04:02:44;;;;;;;51.08;11.70;;;3.40;99.90;;;;;;5055040;28;20224;-73
2024/01/28 04:05:10;;;;;;;38.72;11.07;;;3.40;99.90;;;;;;5054845;28;20094;-73
2024/01/28 04:07:35;;;;;;;43.63;12.20;;;3.40;99.90;;;;;;5055156;28;20025;-74
2024/01/28 04:10:01;;;;;;;37.60;12.35;;;3.30;99.90;;;;;;5055259;28;20025;-73
2024/01/28 04:12:27;;;;;;;41.35;12.43;;;3.30;99.90;;;;;;5055814;28;20029;-73
2024/01/28 04:14:52;;;;;;;39.95;12.68;;;3.20;99.90;;;;;;5052888;28;20037;-75
2024/01/28 04:17:18;;;;;;;38.60;12.20;;;3.20;99.90;;;;;;5053793;28;20025;-74
2024/01/28 04:19:44;;;;;;;44.80;12.32;;;3.10;99.90;;;;;;5052602;28;20028;-74
2024/01/28 04:22:10;;;;;;;40.00;12.48;;;3.10;99.90;;;;;;5057487;28;20035;-75
2024/01/28 04:24:35;;;;;;;45.08;12.90;;;3.00;99.90;;;;;;5073753;28;20026;-76
2024/01/28 04:27:01;;;;;;;52.40;12.65;;;3.00;99.90;;;;;;5072863;28;20082;-74
2024/01/28 04:29:27;;;;;;;54.22;12.65;;;3.00;99.90;;;;;;5073473;28;20452;-75
2024/01/28 04:31:53;;;;;;;45.58;13.52;;;3.00;99.90;;;;;;5073287;28;20052;-73
2024/01/28 04:34:20;;;;;;;53.45;13.48;;;3.00;99.90;;;;;;5073790;28;20024;-73
2024/01/28 04:36:45;;;;;;;50.05;13.10;;;3.00;99.90;;;;;;5073506;28;20040;-74
2024/01/28 04:39:12;;;;;;;45.30;13.15;;;2.90;99.90;;;;;;5073193;28;20028;-74
2024/01/28 04:41:38;;;;;;;46.72;12.82;;;2.90;99.90;;;;;;5073126;28;20020;-75
2024/01/28 04:44:04;;;;;;;53.25;12.68;;;2.90;99.90;;;;;;5073470;28;20024;-75
2024/01/28 04:46:30;;;;;;;45.40;12.25;;;3.00;99.90;;;;;;5073862;28;20137;-75
2024/01/28 04:48:55;;;;;;;36.97;12.43;;;2.90;99.90;;;;;;5074407;28;20132;-74
2024/01/28 04:51:21;;;;;;;53.25;14.77;;;2.90;99.90;;;;;;5073608;28;20031;-76
2024/01/28 04:53:47;;;;;;;53.90;13.85;;;3.00;99.90;;;;;;5074838;28;20391;-74
2024/01/28 04:56:12;;;;;;;41.33;12.93;;;2.90;99.90;;;;;;5049722;28;20039;-74
2024/01/28 04:58:38;;;;;;;48.42;14.10;;;2.90;99.90;;;;;;5052007;28;20025;-73
2024/01/28 05:01:04;;;;;;;49.90;14.35;;;2.90;99.90;;;;;;5053503;28;20087;-74
2024/01/28 05:03:29;;;;;;;51.80;13.98;;;2.90;99.90;;;;;;5047944;28;20052;-73
2024/01/28 05:05:55;;;;;;;46.30;12.75;;;2.90;99.90;;;;;;5048731;28;20025;-74
2024/01/28 05:08:21;;;;;;;53.03;14.55;;;2.90;99.90;;;;;;5050638;28;20082;-73
2024/01/28 05:10:46;;;;;;;58.50;14.32;;;2.90;99.90;;;;;;5050477;28;20400;-73
2024/01/28 05:13:12;;;;;;;58.00;13.35;;;3.00;99.90;;;;;;5051882;28;20032;-77
2024/01/28 05:15:37;;;;;;;57.80;15.68;;;3.00;99.90;;;;;;5051620;28;20102;-75
2024/01/28 05:18:03;;;;;;;54.08;14.25;;;3.00;99.90;;;;;;5050906;28;20052;-74
2024/01/28 05:20:29;;;;;;;50.65;13.90;;;2.90;99.90;;;;;;5051314;28;20032;-74
2024/01/28 05:22:55;;;;;;;49.80;13.73;;;2.90;99.90;;;;;;5051085;28;20499;-74
2024/01/28 05:25:20;;;;;;;51.38;14.60;;;2.90;99.90;;;;;;5051066;28;20100;-73
2024/01/28 05:27:46;;;;;;;46.97;13.65;;;2.90;99.90;;;;;;5050617;28;20159;-74
2024/01/28 05:30:12;;;;;;;48.03;14.68;;;2.90;99.90;;;;;;5052540;28;20032;-75
2024/01/28 05:32:37;;;;;;;49.53;14.15;;;3.00;99.90;;;;;;5050453;28;20029;-75
2024/01/28 05:35:04;;;;;;;58.08;14.68;;;2.90;99.90;;;;;;5052154;28;20028;-74
2024/01/28 05:37:30;;;;;;;50.67;14.95;;;2.90;99.90;;;;;;5050712;28;20518;-77
2024/01/28 05:39:56;;;;;;;56.03;15.10;;;2.90;99.90;;;;;;5050923;28;20029;-77
2024/01/28 05:42:22;;;;;;;49.60;13.70;;;2.90;99.90;;;;;;5049853;28;20135;-76
2024/01/28 05:44:48;;;;;;;60.13;15.02;;;2.90;99.90;;;;;;5051065;28;20063;-73
2024/01/28 05:47:14;;;;;;;52.00;14.73;;;2.90;99.90;;;;;;5050446;28;20494;-74
2024/01/28 05:49:40;;;;;;;55.38;14.65;;;2.90;99.90;;;;;;5051188;28;20314;-76
2024/01/28 05:52:06;;;;;;;55.22;15.05;;;2.90;99.90;;;;;;5051688;28;20017;-76
2024/01/28 05:54:32;;;;;;;53.28;13.63;;;2.90;99.90;;;;;;5050745;28;20017;-73
2024/01/28 05:56:58;;;;;;;50.33;13.30;;;2.90;99.90;;;;;;5049849;28;20021;-73
2024/01/28 05:59:23;;;;;;;52.70;13.70;;;2.90;99.90;;;;;;5050598;28;20143;-75
2024/01/28 06:01:49;;;;;;;53.53;13.63;;;2.90;99.90;;;;;;5050582;28;20452;-75
2024/01/28 06:04:15;;;;;;;46.25;12.82;;;2.90;99.90;;;;;;5050565;28;20100;-75
2024/01/28 06:06:42;;;;;;;46.80;14.18;;;2.90;99.90;;;;;;5050320;28;20021;-76
2024/01/28 06:09:08;;;;;;;42.28;11.77;;;2.90;99.90;;;;;;5050465;28;20089;-75
2024/01/28 06:11:36;;;;;;;58.42;13.23;;;2.90;99.90;;;;;;5049324;28;20028;-75
2024/01/28 06:14:01;;;;;;;43.00;12.57;;;2.80;99.90;;;;;;5050336;28;20112;-74
2024/01/28 06:16:27;;;;;;;41.30;12.80;;;2.80;99.90;;;;;;5049642;28;20155;-77
2024/01/28 06:18:53;;;;;;;47.88;12.82;;;2.80;99.90;;;;;;5047197;28;20082;-74
2024/01/28 06:21:18;;;;;;;38.97;11.95;;;2.80;99.90;;;;;;5051097;28;20029;-75
2024/01/28 06:23:44;;;;;;;53.55;15.55;;;2.70;99.90;;;;;;5052171;28;20025;-71
2024/01/28 06:26:10;;;;;;;51.55;14.43;;;2.90;99.90;;;;;;5051212;28;20028;-74
2024/01/28 06:28:35;;;;;;;50.25;14.10;;;2.90;99.90;;;;;;5051904;28;20021;-71
2024/01/28 06:31:01;;;;;;;46.45;13.70;;;2.90;99.90;;;;;;5050226;28;20025;-76
2024/01/28 06:33:26;;;;;;;45.88;12.70;;;2.80;99.90;;;;;;5050383;28;20033;-74
2024/01/28 06:35:54;;;;;;;46.88;13.55;;;2.80;99.90;;;;;;5046835;28;20488;-74
2024/01/28 06:38:19;;;;;;;38.75;12.15;;;2.90;99.90;;;;;;5045173;28;20021;-74
2024/01/28 06:40:45;;;;;;;49.33;12.60;;;2.80;99.90;;;;;;5050589;28;20116;-74
2024/01/28 06:43:12;;;;;;;56.78;13.82;;;2.80;99.90;;;;;;5052713;28;20079;-73
2024/01/28 06:45:38;;;;;;;41.42;13.02;;;2.80;99.90;;;;;;5052965;28;20093;-74
2024/01/28 06:48:04;;;;;;;54.80;12.38;;;2.80;99.90;;;;;;5052825;28;20115;-74
2024/01/28 06:50:31;;;;;;;50.97;13.27;;;2.80;99.90;;;;;;5053908;28;20143;-74
2024/01/28 06:53:01;;;;;;;46.90;12.95;;;2.80;99.90;;;;;;5053741;28;20247;-74
2024/01/28 06:55:26;;;;;;;50.03;13.02;;;2.70;99.90;;;;;;5049477;28;20017;-74
2024/01/28 06:57:52;;;;;;;51.40;13.52;;;2.70;99.90;;;;;;5052735;28;20100;-75
2024/01/28 07:00:17;;;;;;;60.55;17.42;;;2.70;99.90;;;;;;5053511;28;20033;-73
2024/01/28 07:02:45;;;;;;;49.85;13.93;;;2.70;99.90;;;;;;5051947;28;20476;-73
2024/01/28 07:05:11;;;;;;;53.33;14.80;;;2.60;99.90;;;;;;5053925;28;20020;-76
2024/01/28 07:07:38;;;;;;;58.97;15.32;;;2.60;99.90;;;;;;5051833;28;20155;-74
2024/01/28 07:10:05;;;;;;;49.85;13.93;;;2.70;99.90;;;;;;5053418;28;20071;-73
2024/01/28 07:12:30;;;;;;;51.03;13.95;;;2.60;99.90;;;;;;5056151;28;20028;-72
2024/01/28 07:14:56;;;;;;;57.13;14.95;;;2.60;99.90;;;;;;5051874;28;20033;-74
2024/01/28 07:17:21;;;;;;;57.92;14.85;;;2.60;99.90;;;;;;5054891;28;20123;-74
2024/01/28 07:19:47;;;;;;;48.83;14.20;;;2.60;99.90;;;;;;5053048;28;20017;-74
2024/01/28 07:22:13;;;;;;;52.85;15.65;;;2.60;99.90;;;;;;5047965;28;20044;-74
2024/01/28 07:24:38;;;;;;;49.72;14.45;;;2.60;99.90;;;;;;5053034;28;20128;-72
2024/01/28 07:27:05;;;;;;;45.80;13.90;;;2.60;99.90;;;;;;5052012;28;20401;-71
2024/01/28 07:29:30;;;;;;;50.08;15.07;;;2.60;99.90;;;;;;5053334;28;20017;-73
2024/01/28 07:31:56;;;;;;;42.45;13.77;;;2.60;99.90;;;;;;5053275;28;20475;-74
2024/01/28 07:34:23;;;;;;;54.65;14.32;;;2.60;99.90;;;;;;5052953;28;20048;-72
2024/01/28 07:36:50;;;;;;;53.67;14.10;;;2.60;99.90;;;;;;5053060;28;20021;-73
2024/01/28 07:39:15;;;;;;;50.60;13.60;;;2.70;99.90;;;;;;5052791;28;20431;-72
2024/01/28 07:41:42;;;;;;;50.70;14.60;;;2.70;99.90;;;;;;5052365;28;20033;-71
2024/01/28 07:44:08;;;;;;;48.20;13.68;;;2.80;99.90;;;;;;5053148;28;20035;-71
2024/01/28 07:46:33;;;;;;;52.55;14.40;;;2.70;99.90;;;;;;5052518;28;20260;-73
2024/01/28 07:48:59;;;;;;;53.03;14.35;;;2.70;99.90;;;;;;5052735;28;20021;-72
2024/01/28 07:51:25;;;;;;;47.22;13.18;;;2.70;99.90;;;;;;5052522;28;20462;-74
2024/01/28 07:53:51;;;;;;;52.60;13.70;;;2.70;99.90;;;;;;5051269;28;20392;-73
2024/01/28 07:56:16;;;;;;;53.17;14.30;;;2.70;99.90;;;;;;5053318;28;20472;-76
2024/01/28 07:58:42;;;;;;;50.80;14.38;;;2.70;99.90;;;;;;5054735;28;20029;-75
2024/01/28 08:01:08;;;;;;;47.13;13.57;;;2.70;99.90;;;;;;5056790;28;20021;-76
2024/01/28 08:03:33;;;;;;;47.83;13.45;;;2.70;99.90;;;;;;5052278;28;20024;-75
2024/01/28 08:05:59;;;;;;;56.70;13.63;;;2.80;99.90;;;;;;5051630;28;20031;-74
2024/01/28 08:08:25;;;;;;;51.60;13.40;;;2.80;99.90;;;;;;5052082;28;20507;-74
2024/01/28 08:10:50;;;;;;;63.28;15.45;;;2.90;99.90;;;;;;5053157;28;20499;-75
2024/01/28 08:13:17;;;;;;;42.95;14.15;;;2.90;99.90;;;;;;5052840;28;20032;-76
2024/01/28 08:15:43;;;;;;;41.40;12.40;;;3.00;99.90;;;;;;5052409;28;20645;-75
2024/01/28 08:18:08;;;;;;;46.55;13.70;;;3.10;99.90;;;;;;5052014;28;20033;-76
2024/01/28 08:20:34;;;;;;;41.90;11.75;;;3.10;99.90;;;;;;5052412;28;20094;-76
2024/01/28 08:23:00;;;;;;;42.53;12.23;;;3.20;99.90;;;;;;5052720;28;20352;-76
2024/01/28 08:25:25;;;;;;;50.47;11.35;;;3.20;99.90;;;;;;5053706;28;20029;-76
2024/01/28 08:27:51;;;;;;;41.55;12.40;;;3.40;99.90;;;;;;5052095;28;20043;-75
2024/01/28 08:30:22;;;;;;;43.67;11.27;;;3.50;99.90;;;;;;5052865;28;20025;-75
2024/01/28 08:32:48;;;;;;;48.38;11.05;;;3.60;99.90;;;;;;5052478;28;20031;-74
2024/01/28 08:35:14;;;;;;;46.45;10.85;;;3.80;99.90;;;;;;5053553;28;20025;-76
2024/01/28 08:37:39;;;;;;;37.60;9.70;;;4.10;99.90;;;;;;5052544;28;20029;-76
2024/01/28 08:40:07;;;;;;;36.58;9.82;;;4.30;99.90;;;;;;5053583;28;20539;-75
2024/01/28 08:42:34;;;;;;;36.42;9.50;;;4.70;99.90;;;;;;5053647;28;20388;-75
2024/01/28 08:44:59;;;;;;;42.47;9.80;;;5.10;94.30;;;;;;5051897;28;20442;-77
2024/01/28 08:47:25;;;;;;;34.88;7.88;;;5.50;79.70;;;;;;5051407;28;20036;-73
2024/01/28 08:49:50;;;;;;;34.88;8.75;;;5.90;63.20;;;;;;5052293;28;20473;-74
2024/01/28 08:52:17;;;;;;;34.95;8.25;;;6.20;46.00;;;;;;5052098;28;20049;-74
2024/01/28 08:54:45;;;;;;;35.20;7.72;;;6.60;22.40;;;;;;5052077;28;20375;-73
2024/01/28 08:57:12;;;;;;;26.67;7.82;;;7.10;2.40;;;;;;5051931;28;20417;-75
2024/01/28 08:59:38;;;;;;;35.67;7.95;;;7.40;1.00;;;;;;5052736;28;20013;-76
2024/01/28 09:02:03;;;;;;;34.20;7.80;;;7.90;1.00;;;;;;5055943;28;20040;-75
2024/01/28 09:04:29;;;;;;;32.55;7.38;;;8.60;1.00;;;;;;5054043;28;20476;-75
2024/01/28 09:06:55;;;;;;;26.02;7.28;;;9.00;1.00;;;;;;5056775;28;20074;-77
2024/01/28 09:09:21;;;;;;;28.10;6.93;;;9.30;99.90;;;;;;5057996;28;20021;-78
2024/01/28 09:11:47;;;;;;;28.05;7.20;;;9.80;99.90;;;;;;5059667;28;20025;-79
2024/01/28 09:14:13;;;;;;;35.83;6.72;;;10.10;99.90;;;;;;5060685;28;20358;-78
2024/01/28 09:16:38;;;;;;;27.98;6.70;;;10.50;1.00;;;;;;5053707;28;20410;-79
2024/01/28 09:19:04;;;;;;;29.33;6.97;;;10.60;99.90;;;;;;5053783;28;20029;-77
2024/01/28 09:21:32;;;;;;;31.98;6.90;;;11.00;99.90;;;;;;5056515;28;20033;-78
2024/01/28 09:23:58;;;;;;;30.50;7.57;;;11.40;99.90;;;;;;5056522;28;20121;-75
2024/01/28 09:26:24;;;;;;;29.05;6.60;;;11.60;1.00;;;;;;5055395;28;20056;-76
2024/01/28 09:28:50;;;;;;;32.08;7.20;;;11.80;1.00;;;;;;5057523;28;20021;-76
2024/01/28 09:31:15;;;;;;;24.15;6.78;;;11.80;1.00;;;;;;5051031;28;20032;-76
2024/01/28 09:33:42;;;;;;;25.17;7.00;;;12.00;99.90;;;;;;5051618;28;20602;-79
2024/01/28 09:36:08;;;;;;;25.15;6.43;;;12.20;46.00;;;;;;5051511;28;20496;-76
2024/01/28 09:38:34;;;;;;;27.67;6.35;;;12.60;99.90;;;;;;5052626;28;20375;-73
2024/01/28 09:41:07;;;;;;;38.95;11.38;;;12.80;1.00;;;;;;5052697;28;20025;-76
2024/01/28 09:43:34;;;;;;;26.27;6.57;;;12.90;99.90;;;;;;5053860;28;20075;-75
2024/01/28 09:46:01;;;;;;;33.58;7.45;;;;;;;;;;5050910;28;20028;-72
2024/01/28 09:48:27;;;;;;;23.60;5.75;;;12.80;1.00;;;;;;5050498;28;20033;-74
2024/01/28 09:50:52;;;;;;;26.15;6.78;;;13.50;3.20;;;;;;5050282;28;20113;-76
2024/01/28 09:53:18;;;;;;;30.02;6.78;;;13.80;1.00;;;;;;5050585;28;20109;-73
2024/01/28 09:55:44;;;;;;;27.10;5.68;;;14.10;99.90;;;;;;5050947;28;20049;-74
2024/01/28 09:58:10;;;;;;;22.75;6.63;;;14.20;1.00;;;;;;5051251;28;20075;-74
2024/01/28 10:00:37;;;;;;;28.50;6.78;;;14.50;1.00;;;;;;5051357;28;20028;-74
2024/01/28 10:03:05;;;;;;;24.98;6.03;;;14.80;1.00;;;;;;5050485;28;20062;-75
2024/01/28 10:05:31;;;;;;;21.40;6.32;;;14.60;1.00;;;;;;5051936;28;20044;-76
2024/01/28 10:08:02;;;;;;;29.60;6.45;;;14.70;99.90;;;;;;5050084;28;20060;-76
2024/01/28 10:10:28;;;;;;;27.63;7.45;;;14.90;99.90;;;;;;5050383;28;20029;-75
2024/01/28 10:12:53;;;;;;;24.80;6.35;;;14.70;99.90;;;;;;5050445;28;20036;-75
2024/01/28 10:15:23;;;;;;;24.30;5.82;;;14.40;99.90;;;;;;5050042;28;20112;-75
2024/01/28 10:17:49;;;;;;;27.52;6.15;;;13.60;1.00;;;;;;5051212;28;20103;-74
2024/01/28 10:20:20;;;;;;;23.98;6.07;;;12.50;99.90;;;;;;5055568;28;20017;-73
2024/01/28 10:22:46;;;;;;;25.95;5.38;;;11.50;1.00;;;;;;5054417;28;20037;-73
2024/01/28 10:25:15;;;;;;;25.77;5.85;;;;;;;;;;5054585;28;20032;-73
2024/01/28 10:27:41;;;;;;;26.40;6.57;;;;;;;;;;5054340;28;20196;-74
2024/01/28 10:30:07;;;;;;;29.73;6.38;;;10.70;1.00;;;;;;5053911;28;20074;-77
2024/01/28 10:32:33;;;;;;;33.75;7.15;;;9.40;1.00;;;;;;5054103;28;20028;-75
2024/01/28 10:34:58;;;;;;;31.35;6.15;;;9.20;99.90;;;;;;5053742;28;20025;-75
2024/01/28 10:37:27;;;;;;;24.30;7.05;;;8.90;1.00;;;;;;5053331;28;20029;-76
2024/01/28 10:39:58;;;;;;;34.15;8.43;;;8.80;1.00;;;;;;5056560;28;20051;-74
2024/01/28 10:42:26;;;;;;;23.70;6.45;;;8.60;99.90;;;;;;5056461;28;20028;-77
2024/01/28 10:44:54;;;;;;;23.88;5.65;;;8.40;99.90;;;;;;5057652;28;20024;-76
2024/01/28 10:47:24;;;;;;;20.77;5.55;;;8.20;99.90;;;;;;5054275;28;20570;-73
2024/01/28 10:49:54;;;;;;;32.50;6.43;;;8.20;1.00;;;;;;5053829;28;20021;-74
2024/01/28 10:52:21;;;;;;;25.58;6.53;;;8.20;99.90;;;;;;5053704;28;20021;-73
2024/01/28 10:54:48;;;;;;;22.67;5.65;;;8.10;1.00;;;;;;5054729;28;20032;-75
2024/01/28 10:57:15;;;;;;;29.42;8.77;;;8.00;1.00;;;;;;5053487;28;20464;-75
2024/01/28 10:59:42;;;;;;;27.13;5.55;;;8.00;1.00;;;;;;5053532;28;20025;-73
2024/01/28 11:02:09;;;;;;;29.00;5.43;;;7.90;1.00;;;;;;5052803;28;20017;-76
2024/01/28 11:04:35;;;;;;;25.13;5.20;;;7.90;1.00;;;;;;5056421;28;20054;-72
2024/01/28 11:07:02;;;;;;;28.27;6.10;;;7.90;1.00;;;;;;5053539;28;20021;-73
2024/01/28 11:09:28;;;;;;;25.60;4.95;;;7.90;1.00;;;;;;5053175;28;20128;-73
2024/01/28 11:11:54;;;;;;;26.88;5.70;;;7.90;1.00;;;;;;5054936;28;20055;-74
2024/01/28 11:14:19;;;;;;;17.80;5.18;;;8.00;1.00;;;;;;5055010;28;20033;-75
2024/01/28 11:16:46;;;;;;;20.23;5.57;;;7.90;1.00;;;;;;5053362;28;20032;-73
2024/01/28 11:19:14;;;;;;;23.90;4.88;;;8.00;1.00;;;;;;5053732;28;20112;-72
2024/01/28 11:21:41;;;;;;;21.83;5.35;;;8.00;1.00;;;;;;5053987;28;20539;-72
2024/01/28 11:24:11;;;;;;;30.45;5.47;;;8.10;1.00;;;;;;5055464;28;20025;-75
2024/01/28 11:26:37;;;;;;;23.80;5.93;;;8.20;1.00;;;;;;5052296;28;20029;-74
2024/01/28 11:29:07;;;;;;;18.60;5.22;;;8.40;99.90;;;;;;5050536;28;20044;-75
2024/01/28 11:31:34;;;;;;;21.00;5.40;;;8.60;99.90;;;;;;5053272;28;20104;-74
2024/01/28 11:34:15;;;;;;;26.10;5.53;;;8.90;1.00;;;;;;5053128;28;20067;-73
2024/01/28 11:36:46;;;;;;;24.60;5.30;;;9.50;1.00;;;;;;5050715;28;20021;-75
2024/01/28 11:39:13;;;;;;;25.25;4.88;;;10.40;1.00;;;;;;5052371;28;20055;-75
2024/01/28 11:41:41;;;;;;;21.50;5.35;;;11.40;1.00;;;;;;5051699;28;20503;-73
2024/01/28 11:44:08;;;;;;;20.45;4.65;;;12.10;1.00;;;;;;5053734;28;20025;-74
2024/01/28 11:46:36;;;;;;;19.92;5.03;;;12.60;1.00;;;;;;5052924;28;20355;-74
2024/01/28 11:49:02;;;;;;;23.13;5.38;;;13.10;1.00;;;;;;5051435;28;20025;-74
2024/01/28 11:51:31;;;;;;;24.13;4.65;;;13.50;99.90;;;;;;5052493;28;20021;-73
2024/01/28 11:53:58;;;;;;;24.08;5.53;;;13.60;99.90;;;;;;5052785;28;20021;-74
2024/01/28 11:56:23;;;;;;;20.15;4.63;;;13.80;1.00;;;;;;5051943;28;20025;-73
2024/01/28 11:58:50;;;;;;;23.50;5.30;;;13.80;1.00;;;;;;5051969;28;20028;-73
2024/01/28 12:01:17;;;;;;;17.27;4.40;;;14.00;1.00;;;;;;5050775;28;21920;-74
2024/01/28 12:03:43;;;;;;;17.35;4.00;;;14.30;1.00;;;;;;5051412;28;20021;-73
2024/01/28 12:06:08;;;;;;;18.15;4.07;;;14.40;99.90;;;;;;5052250;28;20028;-75
2024/01/28 12:08:41;;;;;;;18.13;4.20;;;14.60;99.90;;;;;;5052535;28;20029;-74
2024/01/28 12:11:07;;;;;;;15.15;3.95;;;14.70;99.90;;;;;;5053456;28;20519;-72
2024/01/28 12:13:33;;;;;;;19.15;4.78;;;14.80;99.90;;;;;;5053783;28;20032;-75
2024/01/28 12:15:59;;;;;;;13.40;3.92;;;14.70;99.90;;;;;;5053190;28;20387;-73
2024/01/28 12:18:40;;;;;;;15.35;3.60;;;14.90;99.90;;;;;;5051784;28;20116;-73
2024/01/28 12:21:18;;;;;;;15.98;3.60;;;15.20;43.80;;;;;;5052460;28;20031;-73
2024/01/28 12:23:51;;;;;;;17.58;3.75;;;15.20;9.10;;;;;;5052215;28;20029;-73
2024/01/28 12:26:17;;;;;;;14.52;3.53;;;15.30;1.00;;;;;;5050978;28;20449;-73
2024/01/28 12:28:47;;;;;;;19.83;4.07;;;15.20;1.00;;;;;;5051080;28;20021;-73
2024/01/28 12:31:13;;;;;;;15.20;3.50;;;15.30;1.00;;;;;;5052075;28;20032;-73
2024/01/28 12:33:39;;;;;;;15.40;3.42;;;15.80;1.00;;;;;;5051482;28;20291;-73
2024/01/28 12:36:05;;;;;;;19.42;3.63;;;16.40;99.90;;;;;;5052328;28;20048;-74